createdAt,value
2022-12-26T00:02:05.897Z,8.89
2022-12-26T00:04:49.437Z,8.93
2022-12-26T00:07:19.177Z,8.91
2022-12-26T00:09:45.771Z,8.85
2022-12-26T00:12:12.653Z,8.86
2022-12-26T00:14:39.327Z,8.93
2022-12-26T00:17:06.158Z,8.87
2022-12-26T00:19:32.710Z,8.85
2022-12-26T00:21:59.375Z,8.87
2022-12-26T00:24:26.002Z,8.97
2022-12-26T00:26:52.597Z,8.88
2022-12-26T00:29:19.323Z,9.00
2022-12-26T00:31:46.930Z,8.88
2022-12-26T00:34:13.753Z,8.87
2022-12-26T00:36:40.376Z,8.89
2022-12-26T00:39:08.426Z,8.81
2022-12-26T00:41:35.077Z,8.82
2022-12-26T00:44:01.778Z,8.81
2022-12-26T00:46:28.694Z,8.84
2022-12-26T00:48:55.475Z,8.77
2022-12-26T00:51:22.160Z,8.75
2022-12-26T00:53:48.860Z,8.83
2022-12-26T00:56:15.816Z,8.72
2022-12-26T00:58:42.375Z,8.73
2022-12-26T01:01:15.033Z,8.74
2022-12-26T01:03:42.474Z,8.77
2022-12-26T01:06:11.365Z,8.70
2022-12-26T01:08:38.126Z,8.72
2022-12-26T01:11:09.981Z,8.67
2022-12-26T01:13:36.605Z,8.62
2022-12-26T01:16:04.531Z,8.65
2022-12-26T01:18:31.444Z,8.62
2022-12-26T01:20:59.908Z,8.52
2022-12-26T01:23:27.130Z,8.56
2022-12-26T01:26:15.143Z,8.55
2022-12-26T01:28:40.422Z,8.46
2022-12-26T01:31:06.987Z,8.46
2022-12-26T01:33:33.642Z,8.40
2022-12-26T01:36:00.414Z,8.38
2022-12-26T01:38:27.072Z,8.43
2022-12-26T01:41:13.629Z,8.36
2022-12-26T01:43:52.523Z,8.36
2022-12-26T01:46:41.809Z,8.36
2022-12-26T01:49:35.155Z,8.31
2022-12-26T01:52:08.213Z,8.30
2022-12-26T01:54:42.371Z,8.26
2022-12-26T01:57:21.651Z,8.26
2022-12-26T01:59:49.858Z,8.25
2022-12-26T02:02:17.262Z,8.29
2022-12-26T02:05:05.324Z,8.26
2022-12-26T02:07:34.453Z,8.27
2022-12-26T02:10:01.410Z,8.29
2022-12-26T02:12:38.526Z,8.27
2022-12-26T02:15:09.506Z,8.24
2022-12-26T02:17:36.797Z,8.32
2022-12-26T02:20:10.299Z,8.40
2022-12-26T02:22:55.647Z,8.35
2022-12-26T02:25:36.039Z,8.24
2022-12-26T02:28:39.026Z,8.20
2022-12-26T02:31:30.098Z,8.19
2022-12-26T02:34:05.840Z,8.10
2022-12-26T02:36:53.859Z,8.15
2022-12-26T02:39:43.480Z,8.16
2022-12-26T02:42:38.008Z,8.07
2022-12-26T02:45:44.122Z,7.97
2022-12-26T02:48:19.852Z,7.94
2022-12-26T02:51:14.263Z,7.95
2022-12-26T02:54:15.045Z,7.98
2022-12-26T02:57:11.448Z,8.08
2022-12-26T03:00:26.133Z,8.07
2022-12-26T03:03:14.268Z,8.09
2022-12-26T03:06:04.567Z,8.08
2022-12-26T03:08:54.044Z,8.03
2022-12-26T03:11:40.111Z,7.99
2022-12-26T03:14:14.975Z,7.86
2022-12-26T03:17:00.867Z,7.82
2022-12-26T03:19:28.784Z,7.88
2022-12-26T03:21:56.239Z,7.94
2022-12-26T03:24:23.536Z,8.01
2022-12-26T03:26:54.398Z,7.98
2022-12-26T03:29:41.827Z,7.99
2022-12-26T03:32:11.452Z,7.98
2022-12-26T03:34:42.754Z,7.98
2022-12-26T03:37:51.146Z,7.97
2022-12-26T03:40:55.398Z,7.96
2022-12-26T03:44:11.266Z,8.07
2022-12-26T03:47:05.563Z,8.11
2022-12-26T03:49:55.968Z,8.12
2022-12-26T03:52:45.267Z,8.04
2022-12-26T03:55:51.994Z,7.97
2022-12-26T03:58:45.191Z,8.00
2022-12-26T04:01:37.115Z,7.92
2022-12-26T04:04:26.412Z,7.80
2022-12-26T04:07:18.210Z,7.81
2022-12-26T04:10:10.510Z,7.86
2022-12-26T04:12:56.259Z,7.92
2022-12-26T04:16:05.750Z,7.81
2022-12-26T04:19:05.149Z,7.81
2022-12-26T04:21:59.046Z,7.84
2022-12-26T04:24:47.694Z,7.81
2022-12-26T04:27:35.391Z,7.88
2022-12-26T04:30:20.803Z,7.86
2022-12-26T04:33:08.378Z,7.85
2022-12-26T04:35:56.999Z,7.93
2022-12-26T04:38:49.835Z,7.87
2022-12-26T04:41:39.923Z,7.86
2022-12-26T04:44:10.339Z,7.95
2022-12-26T04:46:39.822Z,7.91
2022-12-26T04:49:27.069Z,7.92
2022-12-26T04:51:55.366Z,7.90
2022-12-26T04:54:21.935Z,7.90
2022-12-26T04:56:48.591Z,7.92
2022-12-26T04:59:15.976Z,7.90
2022-12-26T05:02:01.370Z,7.88
2022-12-26T05:04:47.155Z,7.87
2022-12-26T05:07:37.166Z,7.88
2022-12-26T05:10:05.614Z,7.86
2022-12-26T05:12:32.250Z,7.96
2022-12-26T05:14:58.792Z,7.86
2022-12-26T05:17:44.134Z,7.85
2022-12-26T05:20:31.299Z,7.78
2022-12-26T05:23:17.106Z,7.75
2022-12-26T05:26:04.021Z,7.62
2022-12-26T05:28:42.685Z,7.56
2022-12-26T05:31:15.246Z,7.56
2022-12-26T05:34:00.847Z,7.52
2022-12-26T05:36:33.756Z,7.50
2022-12-26T05:39:01.855Z,7.47
2022-12-26T05:41:28.525Z,7.51
2022-12-26T05:43:55.116Z,7.46
2022-12-26T05:46:21.772Z,7.48
2022-12-26T05:48:48.419Z,7.52
2022-12-26T05:51:15.126Z,7.58
2022-12-26T05:53:42.028Z,7.51
2022-12-26T05:56:13.196Z,7.56
2022-12-26T05:58:40.667Z,7.49
2022-12-26T06:01:13.286Z,7.61
2022-12-26T06:03:41.245Z,7.55
2022-12-26T06:06:07.989Z,7.55
2022-12-26T06:08:34.788Z,7.56
2022-12-26T06:11:10.285Z,7.56
2022-12-26T06:13:37.629Z,7.58
2022-12-26T06:16:06.618Z,7.64
2022-12-26T06:18:33.621Z,7.67
2022-12-26T06:21:03.961Z,7.63
2022-12-26T06:23:30.596Z,7.61
2022-12-26T06:25:57.670Z,7.59
2022-12-26T06:28:24.895Z,7.52
2022-12-26T06:30:52.438Z,7.51
2022-12-26T06:33:19.314Z,7.43
2022-12-26T06:35:46.322Z,7.44
2022-12-26T06:38:12.972Z,7.50
2022-12-26T06:40:40.638Z,7.36
2022-12-26T06:43:08.348Z,7.48
2022-12-26T06:45:35.466Z,7.43
2022-12-26T06:48:02.526Z,7.39
2022-12-26T06:50:29.198Z,7.38
2022-12-26T06:52:55.852Z,7.35
2022-12-26T06:55:22.451Z,7.35
2022-12-26T06:57:52.032Z,7.37
2022-12-26T07:00:18.758Z,7.39
2022-12-26T07:02:49.730Z,7.40
2022-12-26T07:05:16.548Z,7.36
2022-12-26T07:07:43.211Z,7.35
2022-12-26T07:10:10.178Z,7.34
2022-12-26T07:12:36.793Z,7.25
2022-12-26T07:15:03.715Z,7.34
2022-12-26T07:17:30.287Z,7.29
2022-12-26T07:19:56.929Z,7.23
2022-12-26T07:22:23.577Z,7.27
2022-12-26T07:24:50.191Z,7.28
2022-12-26T07:27:16.912Z,7.21
2022-12-26T07:29:44.632Z,7.17
2022-12-26T07:32:12.620Z,7.12
2022-12-26T07:34:39.237Z,7.20
2022-12-26T07:37:05.931Z,7.22
2022-12-26T07:39:32.650Z,7.28
2022-12-26T07:41:59.492Z,7.32
2022-12-26T07:44:30.719Z,7.34
2022-12-26T07:46:58.535Z,7.33
2022-12-26T07:49:25.661Z,7.41
2022-12-26T07:51:52.265Z,7.39
2022-12-26T07:54:19.447Z,7.37
2022-12-26T07:56:46.032Z,7.31
2022-12-26T07:59:17.127Z,7.28
2022-12-26T08:01:43.859Z,7.25
2022-12-26T08:04:11.690Z,7.24
2022-12-26T08:06:38.397Z,7.18
2022-12-26T08:09:05.657Z,7.10
2022-12-26T08:11:34.644Z,7.18
2022-12-26T08:14:01.742Z,7.26
2022-12-26T08:16:28.532Z,7.23
2022-12-26T08:18:55.192Z,7.25
2022-12-26T08:21:21.772Z,7.20
2022-12-26T08:23:48.678Z,7.33
2022-12-26T08:26:22.683Z,7.39
2022-12-26T08:28:50.907Z,7.45
2022-12-26T08:31:18.979Z,7.52
2022-12-26T08:33:45.660Z,7.45
2022-12-26T08:36:13.121Z,7.51
2022-12-26T08:38:40.513Z,7.42
2022-12-26T08:41:07.162Z,7.52
2022-12-26T08:44:03.498Z,7.64
2022-12-26T08:46:21.976Z,7.61
2022-12-26T08:48:49.590Z,7.64
2022-12-26T08:51:19.315Z,7.69
2022-12-26T08:53:46.852Z,7.73
2022-12-26T08:56:16.315Z,7.71
2022-12-26T08:58:43.011Z,7.70
2022-12-26T09:01:17.144Z,7.86
2022-12-26T09:03:44.730Z,7.76
2022-12-26T09:06:12.800Z,7.79
2022-12-26T09:08:39.899Z,7.75
2022-12-26T09:11:09.793Z,7.91
2022-12-26T09:13:37.231Z,7.88
2022-12-26T09:16:16.167Z,8.00
2022-12-26T09:18:43.907Z,7.91
2022-12-26T09:21:11.624Z,7.91
2022-12-26T09:23:39.439Z,8.07
2022-12-26T09:26:09.956Z,8.15
2022-12-26T09:28:37.271Z,8.15
2022-12-26T09:31:05.831Z,8.22
2022-12-26T09:33:38.839Z,8.19
2022-12-26T09:36:14.040Z,8.41
2022-12-26T09:38:41.406Z,8.41
2022-12-26T09:41:42.098Z,8.52
2022-12-26T09:44:38.484Z,8.50
2022-12-26T09:47:17.113Z,8.55
2022-12-26T09:49:59.268Z,8.41
2022-12-26T09:52:35.360Z,8.46
2022-12-26T09:55:07.079Z,8.45
2022-12-26T09:57:43.091Z,8.35
2022-12-26T10:00:22.802Z,8.57
2022-12-26T10:02:59.445Z,8.41
2022-12-26T10:05:35.020Z,8.36
2022-12-26T10:08:10.968Z,8.64
2022-12-26T10:11:02.297Z,8.47
2022-12-26T10:13:49.547Z,8.54
2022-12-26T10:16:21.766Z,8.42
2022-12-26T10:19:02.380Z,8.47
2022-12-26T10:21:38.275Z,8.57
2022-12-26T10:24:13.042Z,8.42
2022-12-26T10:26:52.122Z,8.58
2022-12-26T10:29:28.455Z,8.51
2022-12-26T10:32:07.197Z,8.47
2022-12-26T10:34:37.865Z,8.46
2022-12-26T10:37:12.814Z,8.35
2022-12-26T10:39:51.407Z,8.29
2022-12-26T10:42:29.273Z,8.21
2022-12-26T10:44:56.309Z,8.25
2022-12-26T10:47:40.448Z,8.50
2022-12-26T10:50:14.967Z,8.58
2022-12-26T10:52:41.788Z,8.64
2022-12-26T10:55:28.767Z,8.67
2022-12-26T10:58:02.546Z,8.84
2022-12-26T11:00:29.547Z,8.93
2022-12-26T11:03:02.326Z,9.02
2022-12-26T11:08:26.023Z,8.80
2022-12-26T11:11:05.468Z,8.85
2022-12-26T11:13:39.159Z,9.08
2022-12-26T11:16:06.633Z,9.19
2022-12-26T11:18:49.667Z,9.09
2022-12-26T11:21:19.259Z,9.06
2022-12-26T11:23:47.926Z,9.01
2022-12-26T11:26:30.174Z,8.93
2022-12-26T11:29:16.530Z,9.01
2022-12-26T11:32:03.340Z,8.88
2022-12-26T11:34:39.474Z,8.79
2022-12-26T11:37:07.131Z,8.76
2022-12-26T11:39:36.849Z,8.69
2022-12-26T11:42:11.845Z,8.89
2022-12-26T11:44:41.865Z,8.85
2022-12-26T11:47:16.863Z,8.80
2022-12-26T11:50:02.350Z,8.95
2022-12-26T11:52:34.859Z,8.87
2022-12-26T11:55:02.079Z,8.96
2022-12-26T11:57:31.629Z,8.94
2022-12-26T12:00:19.969Z,9.01
2022-12-26T12:02:46.841Z,9.04
2022-12-26T12:05:36.598Z,9.21
2022-12-26T12:08:19.414Z,9.16
2022-12-26T12:10:57.977Z,9.35
2022-12-26T12:13:46.214Z,9.34
2022-12-26T12:16:31.800Z,9.23
2022-12-26T12:19:21.009Z,9.21
2022-12-26T12:22:08.595Z,9.28
2022-12-26T12:24:48.791Z,9.36
2022-12-26T12:27:32.183Z,9.28
2022-12-26T12:30:24.782Z,9.23
2022-12-26T12:33:10.157Z,9.12
2022-12-26T12:35:49.587Z,9.08
2022-12-26T12:38:53.178Z,8.93
2022-12-26T12:41:37.775Z,8.97
2022-12-26T12:44:07.406Z,8.93
2022-12-26T12:46:55.487Z,8.78
2022-12-26T12:49:34.929Z,8.78
2022-12-26T12:52:51.720Z,8.81
2022-12-26T12:55:40.860Z,8.75
2022-12-26T12:58:23.379Z,8.63
2022-12-26T13:00:56.359Z,8.53
2022-12-26T13:03:57.841Z,8.34
2022-12-26T13:06:34.430Z,8.17
2022-12-26T13:09:22.962Z,8.06
2022-12-26T13:12:02.697Z,7.95
2022-12-26T13:14:34.477Z,7.78
2022-12-26T13:17:14.624Z,7.68
2022-12-26T13:19:51.360Z,7.54
2022-12-26T13:22:54.848Z,7.45
2022-12-26T13:25:23.725Z,7.37
2022-12-26T13:27:51.636Z,7.21
2022-12-26T13:30:18.408Z,7.02
2022-12-26T13:32:46.875Z,6.95
2022-12-26T13:35:47.468Z,6.89
2022-12-26T13:38:14.207Z,6.93
2022-12-26T13:41:22.007Z,6.92
2022-12-26T13:44:23.370Z,6.95
2022-12-26T13:46:49.975Z,6.85
2022-12-26T13:49:39.056Z,6.59
2022-12-26T13:52:11.395Z,6.51
2022-12-26T13:55:07.048Z,6.12
2022-12-26T13:57:42.656Z,6.01
2022-12-26T14:00:48.367Z,5.88
2022-12-26T14:03:28.280Z,5.78
2022-12-26T14:06:16.513Z,5.59
2022-12-26T14:09:02.052Z,5.55
2022-12-26T14:11:31.640Z,5.44
2022-12-26T14:14:18.455Z,5.32
2022-12-26T14:16:56.443Z,5.25
2022-12-26T14:19:35.230Z,5.21
2022-12-26T14:22:14.623Z,5.15
2022-12-26T14:24:56.945Z,5.15
2022-12-26T14:27:40.141Z,5.12
2022-12-26T14:30:28.637Z,5.06
2022-12-26T14:33:30.441Z,5.11
2022-12-26T14:36:11.481Z,5.06
2022-12-26T14:38:42.534Z,4.99
2022-12-26T14:41:36.107Z,4.92
2022-12-26T14:44:10.066Z,5.09
2022-12-26T14:46:38.753Z,5.03
2022-12-26T14:49:35.529Z,5.08
2022-12-26T14:52:33.526Z,5.03
2022-12-26T14:55:00.277Z,5.02
2022-12-26T14:57:47.638Z,5.03
2022-12-26T15:00:16.313Z,4.96
2022-12-26T15:02:45.226Z,4.92
2022-12-26T15:05:16.326Z,4.73
2022-12-26T15:08:20.545Z,4.80
2022-12-26T15:11:08.191Z,4.64
2022-12-26T15:13:55.643Z,4.45
2022-12-26T15:16:26.999Z,4.42
2022-12-26T15:19:25.038Z,4.46
2022-12-26T15:22:16.090Z,4.36
2022-12-26T15:27:59.417Z,4.22
2022-12-26T15:31:00.185Z,4.18
2022-12-26T15:33:39.416Z,4.10
2022-12-26T15:36:22.020Z,4.07
2022-12-26T15:38:54.047Z,4.02
2022-12-26T15:41:47.106Z,3.90
2022-12-26T15:44:21.052Z,3.81
2022-12-26T15:47:06.294Z,3.87
2022-12-26T15:50:04.066Z,3.83
2022-12-26T15:52:50.959Z,3.67
2022-12-26T15:55:17.551Z,3.66
2022-12-26T15:58:22.542Z,3.75
2022-12-26T16:00:53.638Z,3.81
2022-12-26T16:03:29.645Z,3.82
2022-12-26T16:06:17.568Z,3.92
2022-12-26T16:09:13.965Z,3.95
2022-12-26T16:11:54.718Z,3.94
2022-12-26T16:14:29.013Z,3.89
2022-12-26T16:17:10.352Z,3.88
2022-12-26T16:19:37.761Z,3.88
2022-12-26T16:22:25.512Z,3.75
2022-12-26T16:24:53.809Z,3.78
2022-12-26T16:27:22.977Z,3.78
2022-12-26T16:29:52.897Z,3.81
2022-12-26T16:32:21.665Z,3.75
2022-12-26T16:34:49.383Z,3.60
2022-12-26T16:37:21.776Z,3.56
2022-12-26T16:40:08.364Z,3.60
2022-12-26T16:42:35.074Z,3.65
2022-12-26T16:45:01.825Z,3.65
2022-12-26T16:47:30.863Z,3.54
2022-12-26T16:49:59.254Z,3.51
2022-12-26T16:52:45.858Z,3.68
2022-12-26T16:55:22.373Z,3.61
2022-12-26T16:57:52.919Z,3.62
2022-12-26T17:00:21.658Z,3.68
2022-12-26T17:02:50.406Z,3.73
2022-12-26T17:05:27.629Z,3.68
2022-12-26T17:07:56.125Z,3.66
2022-12-26T17:10:25.674Z,3.65
2022-12-26T17:12:53.270Z,3.58
2022-12-26T17:15:23.158Z,3.60
2022-12-26T17:17:49.971Z,3.61
2022-12-26T17:20:37.207Z,3.68
2022-12-26T17:23:31.222Z,3.79
2022-12-26T17:26:17.341Z,3.75
2022-12-26T17:28:44.020Z,3.75
2022-12-26T17:31:19.115Z,3.68
2022-12-26T17:33:48.226Z,3.57
2022-12-26T17:39:17.491Z,3.65
2022-12-26T17:41:51.005Z,3.68
2022-12-26T17:44:32.927Z,3.77
2022-12-26T17:47:02.906Z,3.70
2022-12-26T17:49:29.563Z,3.70
2022-12-26T17:52:01.710Z,3.64
2022-12-26T17:54:28.829Z,3.71
2022-12-26T17:56:55.545Z,3.65
2022-12-26T17:59:22.352Z,3.67
2022-12-26T18:01:49.172Z,3.59
2022-12-26T18:04:15.855Z,3.59
2022-12-26T18:06:42.587Z,3.72
2022-12-26T18:09:24.523Z,3.79
2022-12-26T18:11:51.185Z,3.92
2022-12-26T18:14:17.936Z,3.76
2022-12-26T18:16:44.783Z,3.62
2022-12-26T18:19:16.042Z,3.60
2022-12-26T18:21:42.787Z,3.52
2022-12-26T18:24:09.676Z,3.58
2022-12-26T18:26:36.690Z,3.60
2022-12-26T18:29:03.453Z,3.55
2022-12-26T18:31:31.614Z,3.55
2022-12-26T18:33:58.390Z,3.56
2022-12-26T18:36:32.239Z,3.46
2022-12-26T18:38:59.028Z,3.54
2022-12-26T18:41:25.960Z,3.47
2022-12-26T18:43:52.936Z,3.46
2022-12-26T18:46:24.756Z,3.29
2022-12-26T18:48:56.758Z,3.31
2022-12-26T18:51:24.454Z,3.15
2022-12-26T18:53:51.272Z,3.03
2022-12-26T18:56:20.551Z,2.91
2022-12-26T18:58:53.910Z,2.89
2022-12-26T19:01:24.125Z,2.76
2022-12-26T19:03:51.322Z,2.76
2022-12-26T19:06:27.245Z,2.77
2022-12-26T19:08:54.215Z,2.85
2022-12-26T19:11:20.909Z,2.83
2022-12-26T19:13:47.695Z,2.70
2022-12-26T19:16:15.457Z,2.56
2022-12-26T19:18:42.121Z,2.70
2022-12-26T19:21:13.330Z,2.72
2022-12-26T19:23:40.402Z,2.71
2022-12-26T19:26:12.223Z,2.76
2022-12-26T19:28:39.454Z,2.74
2022-12-26T19:31:10.538Z,2.67
2022-12-26T19:33:37.545Z,2.51
2022-12-26T19:36:05.599Z,2.52
2022-12-26T19:38:32.253Z,2.43
2022-12-26T19:41:04.382Z,2.45
2022-12-26T19:43:31.493Z,2.48
2022-12-26T19:46:00.433Z,2.43
2022-12-26T19:48:27.250Z,2.37
2022-12-26T19:50:53.872Z,2.33
2022-12-26T19:53:20.540Z,2.26
2022-12-26T19:55:47.200Z,2.26
2022-12-26T19:58:13.840Z,2.11
2022-12-26T20:00:40.472Z,2.25
2022-12-26T20:03:07.185Z,2.19
2022-12-26T20:05:37.112Z,2.22
2022-12-26T20:08:04.031Z,2.21
2022-12-26T20:10:30.814Z,2.25
2022-12-26T20:12:57.492Z,2.14
2022-12-26T20:15:24.125Z,2.21
2022-12-26T20:17:52.641Z,2.19
2022-12-26T20:20:20.319Z,2.13
2022-12-26T20:22:52.835Z,2.13
2022-12-26T20:25:19.917Z,2.08
2022-12-26T20:27:46.480Z,2.01
2022-12-26T20:30:13.210Z,1.97
2022-12-26T20:32:44.028Z,1.92
2022-12-26T20:35:10.629Z,2.07
2022-12-26T20:37:37.362Z,1.95
2022-12-26T20:40:04.383Z,1.98
2022-12-26T20:42:31.160Z,2.02
2022-12-26T20:44:57.836Z,1.99
2022-12-26T20:47:24.477Z,1.86
2022-12-26T20:49:51.146Z,1.89
2022-12-26T20:52:18.576Z,1.82
2022-12-26T20:54:45.986Z,1.71
2022-12-26T20:57:12.623Z,1.72
2022-12-26T20:59:39.304Z,1.78
2022-12-26T21:02:06.559Z,1.72
2022-12-26T21:04:33.488Z,1.66
2022-12-26T21:07:00.251Z,1.67
2022-12-26T21:09:26.935Z,1.65
2022-12-26T21:11:53.523Z,1.65
2022-12-26T21:14:21.351Z,1.68
2022-12-26T21:16:53.475Z,1.77
2022-12-26T21:19:22.803Z,1.63
2022-12-26T21:21:52.424Z,1.59
2022-12-26T21:24:21.335Z,1.66
2022-12-26T21:26:48.451Z,1.71
2022-12-26T21:29:19.764Z,1.63
2022-12-26T21:31:47.163Z,1.73
2022-12-26T21:34:15.621Z,1.69
2022-12-26T21:37:03.113Z,1.58
2022-12-26T21:39:30.347Z,1.81
2022-12-26T21:41:57.004Z,1.66
2022-12-26T21:44:23.873Z,1.59
2022-12-26T21:46:50.500Z,1.57
2022-12-26T21:49:17.173Z,1.60
2022-12-26T21:51:43.794Z,1.67
2022-12-26T21:54:29.029Z,1.70
2022-12-26T21:56:55.771Z,1.74
2022-12-26T21:59:40.850Z,1.68
2022-12-26T22:02:29.013Z,1.75
2022-12-26T22:04:55.869Z,1.80
2022-12-26T22:07:22.522Z,1.91
2022-12-26T22:09:49.230Z,2.00
2022-12-26T22:12:34.476Z,2.00
2022-12-26T22:15:01.144Z,1.96
2022-12-26T22:17:27.784Z,1.91
2022-12-26T22:19:54.377Z,1.93
2022-12-26T22:22:21.075Z,1.72
2022-12-26T22:24:47.728Z,1.68
2022-12-26T22:27:14.407Z,1.58
2022-12-26T22:29:42.351Z,1.55
2022-12-26T22:32:09.022Z,1.48
2022-12-26T22:34:35.752Z,1.35
2022-12-26T22:37:02.449Z,1.36
2022-12-26T22:39:29.113Z,1.38
2022-12-26T22:42:02.018Z,1.33
2022-12-26T22:44:29.106Z,1.24
2022-12-26T22:46:57.832Z,1.30
2022-12-26T22:49:24.531Z,1.34
2022-12-26T22:51:51.217Z,1.17
2022-12-26T22:54:17.880Z,1.11
2022-12-26T22:56:44.531Z,1.22
2022-12-26T22:59:13.659Z,1.20
2022-12-26T23:01:45.268Z,1.22
2022-12-26T23:04:12.950Z,1.14
2022-12-26T23:06:41.379Z,1.16
2022-12-26T23:09:13.669Z,1.08
2022-12-26T23:11:40.723Z,1.22
2022-12-26T23:14:08.744Z,1.17
2022-12-26T23:16:42.958Z,1.18
2022-12-26T23:19:32.682Z,1.19
2022-12-26T23:22:01.113Z,1.12
2022-12-26T23:24:30.067Z,1.09
2022-12-26T23:27:19.216Z,1.06
2022-12-26T23:30:04.527Z,1.05
2022-12-26T23:32:31.151Z,1.17
2022-12-26T23:34:57.799Z,1.14
2022-12-26T23:37:24.443Z,1.20
2022-12-26T23:39:51.080Z,1.19
2022-12-26T23:42:17.696Z,1.24
2022-12-26T23:44:44.330Z,1.26
2022-12-26T23:47:11.014Z,1.27
2022-12-26T23:49:37.654Z,1.30
2022-12-26T23:52:04.457Z,1.38
2022-12-26T23:54:31.242Z,1.47
2022-12-26T23:56:57.904Z,1.55
2022-12-26T23:59:24.886Z,1.60
